Jaboticabal, Brazil
Current Conditions -  °F | °C
As of 2:00 AM on Sunday 25 Jan 2015 (Local Time) from SBRP Reporting Station
Thunderstorm Thunderstorm  
Wind Chill: 72°   Ceiling: 9000
Heat Index: 72°   Visibility: 6mi
Dew Point: 64°   Wind: 6mph
Humidity: 78%   Direction: 100°E
Pressure: 29.97"   Gusts: NA
Location:  21.25°S, 48.33°W
Report Text: SBRP 250400Z 10005KT 9999 TS VCSH SCT045 FEW049CB BKN090 22/18 Q1015
Loading
Personal Weather Stations






























Interactive Weather Map New forecast layout! Learn more

10-Day Weather Forecast

Advertisements
Track Severe Weather on mobile